Decoded Metar for KHYI (SAN MARCOS in TX, USA) (IATA:HYI) | Meteo·Mobile Aviation Weather
aviador You're here:

KHYI Decoded Metar

SAN MARCOS in TX, USA
Report Time2019-10-22 13:56:00
UTC Time2019-10-22 14:15:00
Flight Rules vfr VFR
Wind340° at 05 kt
W.Decomp.*RWY 35: 4.8 kt HW 1.5 kt LCW
RWY 31: 4.6 kt HW 2.0 kt RCW
RWY 26: 1.5 kt HW 4.8 kt RCW
Visibility9999 m
Phenomena:N/A
Clouds:N/A
Expected CloudBase > 3,200 ft AGL from Temp-Dew spread
CeilingNone
Temp14°C (ISA 0)
Dew Point06°C (59% RH)
AAT11.3°C
QNH1023 hPa
Density Alt410 ft
Elevation597 ft
Report Wrong Elevation
Raw Report
KHYI 221356Z 34005KT 10SM CLR 14/06 A3020 RMK AO2 SLP219
T01440061=

Extra information for KHYI:More info

Metar Taf Metar & Taf Last 4 Metars F.Rules Stats Wind Profile Meteogram Temp Stats Airport Information Weather charts Add Link Nearby VenuesMetar ALERT Operation Metar Decoded Social comments

AIRNAV info for KHYI